Time;durP1;ratioP1;P1;durP2;ratioP2;P2;SDS_P1;SDS_P2;PMS_P1;PMS_P2;Temp;Humidity;BMP_temperature;BMP_pressure;BME280_temperature;BME280_humidity;BME280_pressure;Samples;Min_cycle;Max_cycle;Signal;HPM_P1;HPM_P2
2022/06/24 00:01:21;;;;;;;4.80;3.30;;;23.80;61.60;;;;;;9179360;19;19951;-71
2022/06/24 00:04:26;;;;;;;5.00;3.10;;;23.70;61.50;;;;;;9178214;19;20030;-72
2022/06/24 00:07:32;;;;;;;;;;;23.70;61.40;;;;;;9178108;19;20026;-71
2022/06/24 00:10:39;;;;;;;5.10;2.92;;;23.50;62.20;;;;;;9179596;19;20340;-70
2022/06/24 00:13:44;;;;;;;4.32;2.90;;;23.60;61.90;;;;;;9189163;19;20033;-71
2022/06/24 00:16:56;;;;;;;4.13;3.38;;;23.40;62.00;;;;;;9185749;19;20368;-72
2022/06/24 00:20:02;;;;;;;4.50;3.10;;;23.40;62.40;;;;;;9188339;19;20010;-72
2022/06/24 00:23:12;;;;;;;5.55;3.20;;;23.20;62.10;;;;;;9185647;19;20094;-72
2022/06/24 00:26:18;;;;;;;4.38;3.20;;;23.40;62.60;;;;;;9187903;19;20194;-72
2022/06/24 00:29:23;;;;;;;4.40;3.00;;;23.10;62.50;;;;;;9188333;19;20014;-72
2022/06/24 00:32:33;;;;;;;4.43;2.78;;;23.30;62.30;;;;;;9188074;19;20019;-72
2022/06/24 00:35:40;;;;;;;3.28;2.90;;;23.30;62.80;;;;;;9184078;19;20404;-72
2022/06/24 00:38:53;;;;;;;4.60;3.00;;;23.00;62.40;;;;;;9188260;19;20101;-72
2022/06/24 00:42:02;;;;;;;5.03;3.40;;;23.10;63.00;;;;;;9187328;19;20010;-72
2022/06/24 00:45:16;;;;;;;4.78;3.72;;;23.10;62.90;;;;;;9175925;19;20051;-72
2022/06/24 00:48:24;;;;;;;4.57;3.17;;;22.90;63.10;;;;;;9189209;19;20471;-71
2022/06/24 00:51:33;;;;;;;;;;;23.00;63.00;;;;;;9187556;19;20014;-72
2022/06/24 00:54:37;;;;;;;4.68;3.13;;;22.80;63.40;;;;;;9188032;19;20276;-72
2022/06/24 00:57:44;;;;;;;6.13;3.58;;;22.80;63.50;;;;;;9187584;19;20025;-71
2022/06/24 01:00:50;;;;;;;5.10;3.25;;;22.80;64.10;;;;;;9185242;19;20078;-72
2022/06/24 01:03:57;;;;;;;5.63;3.75;;;22.70;64.40;;;;;;9183521;19;20025;-71
2022/06/24 01:07:01;;;;;;;;;;;22.50;64.50;;;;;;9186451;19;20009;-72
2022/06/24 01:10:05;;;;;;;5.22;3.40;;;22.70;65.40;;;;;;9183629;19;19914;-72
2022/06/24 01:13:12;;;;;;;6.35;3.53;;;22.50;64.70;;;;;;9184840;19;20022;-71
2022/06/24 01:16:16;;;;;;;3.75;3.33;;;22.50;64.90;;;;;;9186647;19;20015;-71
2022/06/24 01:19:21;;;;;;;5.75;3.88;;;22.40;65.50;;;;;;9183591;19;20074;-72
2022/06/24 01:22:29;;;;;;;4.28;3.58;;;22.10;65.30;;;;;;9184212;19;20540;-71
2022/06/24 01:25:34;;;;;;;3.83;3.42;;;22.10;66.20;;;;;;9182167;19;20014;-71
2022/06/24 01:28:38;;;;;;;4.63;3.67;;;22.00;66.60;;;;;;9183283;19;20376;-71
2022/06/24 01:31:42;;;;;;;4.80;3.90;;;22.00;66.70;;;;;;9187280;19;20022;-71
2022/06/24 01:34:46;;;;;;;5.57;3.85;;;22.00;67.20;;;;;;9180244;19;20078;-72
2022/06/24 01:37:53;;;;;;;5.82;3.67;;;21.80;67.40;;;;;;9180428;19;20512;-71
2022/06/24 01:40:57;;;;;;;3.90;3.50;;;21.80;68.10;;;;;;9187049;19;20018;-73
2022/06/24 01:44:01;;;;;;;4.45;3.30;;;21.60;68.20;;;;;;9185776;19;20011;-71
2022/06/24 01:47:05;;;;;;;5.95;3.85;;;21.50;68.50;;;;;;9184250;19;20082;-72
2022/06/24 01:50:10;;;;;;;5.30;3.80;;;21.80;68.70;;;;;;9185258;19;20082;-72
2022/06/24 01:53:17;;;;;;;6.70;3.92;;;21.50;68.40;;;;;;9181654;19;20482;-72
2022/06/24 01:56:21;;;;;;;5.22;3.85;;;21.40;69.30;;;;;;9186542;19;20022;-72
2022/06/24 01:59:25;;;;;;;6.25;3.63;;;21.50;69.50;;;;;;9184704;19;20059;-72
2022/06/24 02:02:29;;;;;;;5.57;3.80;;;21.40;70.00;;;;;;9181352;19;20021;-72
2022/06/24 02:05:34;;;;;;;6.68;4.25;;;21.30;70.10;;;;;;9187318;19;20022;-71
2022/06/24 02:08:41;;;;;;;5.97;3.90;;;21.30;70.80;;;;;;9183510;19;20010;-71
2022/06/24 02:15:01;;;;;;;5.50;4.13;;;21.10;71.50;;;;;;9180143;19;20697;-72
2022/06/24 02:18:05;;;;;;;6.20;4.72;;;21.10;71.80;;;;;;9184261;19;20033;-72
2022/06/24 02:21:10;;;;;;;5.90;4.50;;;21.10;72.00;;;;;;9184563;19;20048;-72
2022/06/24 02:24:17;;;;;;;6.78;4.05;;;21.00;72.30;;;;;;9183846;19;20019;-71
2022/06/24 02:27:21;;;;;;;4.70;3.90;;;20.90;72.70;;;;;;9185371;19;20012;-71
2022/06/24 02:30:25;;;;;;;5.47;4.40;;;21.00;72.70;;;;;;9180840;19;20022;-71
2022/06/24 02:33:30;;;;;;;6.15;4.03;;;21.00;72.90;;;;;;9182878;19;20025;-72
2022/06/24 02:36:34;;;;;;;5.10;3.78;;;20.90;72.80;;;;;;9177921;19;20011;-72
2022/06/24 02:39:41;;;;;;;4.47;3.97;;;21.00;73.10;;;;;;9185289;19;20347;-72
2022/06/24 02:42:45;;;;;;;6.00;4.00;;;21.00;73.70;;;;;;9181021;19;20374;-72
2022/06/24 02:45:51;;;;;;;6.35;4.32;;;20.90;72.90;;;;;;9181695;19;20151;-72
2022/06/24 02:48:55;;;;;;;5.18;4.20;;;20.80;73.10;;;;;;9183023;19;20022;-72
2022/06/24 02:51:59;;;;;;;7.50;4.13;;;20.90;72.90;;;;;;9183389;19;20052;-71
2022/06/24 02:55:06;;;;;;;4.70;3.90;;;21.10;73.40;;;;;;9183431;19;20413;-72
2022/06/24 02:58:10;;;;;;;6.82;4.28;;;21.00;73.80;;;;;;9179988;19;20018;-72
2022/06/24 03:01:15;;;;;;;6.63;4.40;;;20.90;74.00;;;;;;9179326;19;20018;-73
2022/06/24 03:04:18;;;;;;;5.60;4.18;;;20.80;74.00;;;;;;9178798;19;20070;-72
2022/06/24 03:07:22;;;;;;;6.30;4.30;;;20.80;74.10;;;;;;9182007;19;20078;-72
2022/06/24 03:10:29;;;;;;;4.70;4.20;;;20.70;74.40;;;;;;9182193;19;20499;-72
2022/06/24 03:13:33;;;;;;;4.65;4.15;;;20.70;75.50;;;;;;9183818;19;20011;-72
2022/06/24 03:16:37;;;;;;;6.28;4.30;;;20.60;74.80;;;;;;9180463;19;20014;-72
2022/06/24 03:19:40;;;;;;;6.05;4.30;;;20.70;75.10;;;;;;9181545;19;20017;-72
2022/06/24 03:22:45;;;;;;;7.85;4.07;;;20.60;75.10;;;;;;9178960;19;20022;-72
2022/06/24 03:25:52;;;;;;;5.68;4.20;;;20.60;75.50;;;;;;9178568;19;20017;-72
2022/06/24 03:28:56;;;;;;;6.43;4.03;;;20.50;75.70;;;;;;9181743;19;20010;-71
2022/06/24 03:31:59;;;;;;;4.57;4.10;;;20.70;76.40;;;;;;9180229;19;20123;-71
2022/06/24 03:35:04;;;;;;;4.72;3.95;;;20.70;77.00;;;;;;9178400;19;20021;-72
2022/06/24 03:38:08;;;;;;;6.63;4.53;;;20.50;77.60;;;;;;9177872;19;20023;-72
2022/06/24 03:41:15;;;;;;;6.75;4.43;;;20.60;78.10;;;;;;9181433;19;20018;-71
2022/06/24 03:44:18;;;;;;;6.50;4.45;;;20.60;78.70;;;;;;9180669;19;20073;-71
2022/06/24 03:47:23;;;;;;;6.32;4.40;;;20.60;78.80;;;;;;9179509;19;20014;-72
2022/06/24 03:50:27;;;;;;;8.48;4.80;;;20.60;79.50;;;;;;9177909;19;20527;-72
2022/06/24 03:53:32;;;;;;;6.20;4.53;;;20.50;79.40;;;;;;9182515;19;20352;-72
2022/06/24 03:56:39;;;;;;;6.28;4.35;;;20.40;79.90;;;;;;9179747;19;20018;-71
2022/06/24 03:59:43;;;;;;;4.57;4.10;;;20.70;80.60;;;;;;9177696;19;20034;-71
2022/06/24 04:02:47;;;;;;;4.88;4.25;;;20.70;80.80;;;;;;9178905;19;20086;-71
2022/06/24 04:05:50;;;;;;;8.35;4.78;;;20.50;80.50;;;;;;9177590;19;20341;-71
2022/06/24 04:08:55;;;;;;;6.00;4.38;;;20.50;81.30;;;;;;9175539;19;20022;-72
2022/06/24 04:12:02;;;;;;;6.50;4.75;;;20.50;81.40;;;;;;9178677;19;20362;-71
2022/06/24 04:15:20;;;;;;;5.65;4.63;;;20.50;82.00;;;;;;9182869;19;20019;-71
2022/06/24 04:18:23;;;;;;;6.78;4.63;;;20.70;82.00;;;;;;9178572;19;20021;-71
2022/06/24 04:21:30;;;;;;;5.57;4.82;;;20.80;82.20;;;;;;9180368;19;20022;-72
2022/06/24 04:24:35;;;;;;;6.10;4.75;;;20.60;82.80;;;;;;9174845;19;20353;-72
2022/06/24 04:27:42;;;;;;;6.28;4.78;;;20.60;83.50;;;;;;9177993;19;20044;-72
2022/06/24 04:30:46;;;;;;;4.90;4.40;;;20.50;83.70;;;;;;9179831;19;20018;-72
2022/06/24 04:33:50;;;;;;;5.35;4.63;;;20.50;84.90;;;;;;9177206;19;20014;-72
2022/06/24 04:36:54;;;;;;;6.22;4.22;;;20.30;85.60;;;;;;9177813;19;20022;-72
2022/06/24 04:40:00;;;;;;;6.10;4.35;;;20.70;86.30;;;;;;9178015;19;20442;-72
2022/06/24 04:43:07;;;;;;;4.95;4.47;;;20.50;86.70;;;;;;9178589;19;20010;-72
2022/06/24 04:46:11;;;;;;;9.65;4.45;;;20.30;86.50;;;;;;9175829;19;20539;-72
2022/06/24 04:49:15;;;;;;;6.47;4.80;;;20.40;87.50;;;;;;9178288;19;20015;-72
2022/06/24 04:52:19;;;;;;;5.65;4.25;;;20.40;87.80;;;;;;9175551;19;20408;-71
2022/06/24 04:55:24;;;;;;;5.15;4.40;;;20.50;88.40;;;;;;9177788;19;20405;-72
2022/06/24 04:58:30;;;;;;;7.47;4.40;;;20.50;89.50;;;;;;9176449;19;20044;-72
2022/06/24 05:01:34;;;;;;;6.78;4.30;;;20.70;90.40;;;;;;9186785;19;20456;-72
2022/06/24 05:04:39;;;;;;;6.05;4.63;;;20.70;90.70;;;;;;9184566;19;20404;-72
2022/06/24 05:07:43;;;;;;;4.95;4.45;;;20.60;90.90;;;;;;9188750;19;20011;-71
2022/06/24 05:10:47;;;;;;;6.70;4.35;;;20.60;90.20;;;;;;9186547;19;20021;-72
2022/06/24 05:13:55;;;;;;;7.25;4.43;;;20.70;90.90;;;;;;9183798;19;20025;-72
2022/06/24 05:16:59;;;;;;;5.15;4.35;;;20.70;91.50;;;;;;9183032;19;20409;-72
2022/06/24 05:20:03;;;;;;;6.35;4.50;;;21.00;92.30;;;;;;9182616;19;20085;-71
2022/06/24 05:23:07;;;;;;;5.45;4.85;;;20.90;92.20;;;;;;9185172;19;20074;-72
2022/06/24 05:26:12;;;;;;;9.00;4.53;;;20.70;91.90;;;;;;9183250;19;20010;-72
2022/06/24 05:29:18;;;;;;;7.00;4.32;;;20.90;91.80;;;;;;9186304;19;20090;-71
2022/06/24 05:32:22;;;;;;;6.22;4.75;;;20.80;92.30;;;;;;9185298;19;20074;-72
2022/06/24 05:35:26;;;;;;;7.45;4.95;;;20.80;93.00;;;;;;9182195;19;20028;-72
2022/06/24 05:38:30;;;;;;;5.80;4.85;;;20.80;93.60;;;;;;9186822;19;20014;-72
2022/06/24 05:41:35;;;;;;;8.00;5.82;;;20.80;93.70;;;;;;9185932;19;20056;-72
2022/06/24 05:44:41;;;;;;;6.72;5.38;;;20.70;93.40;;;;;;9182102;19;20055;-72
2022/06/24 05:47:45;;;;;;;6.88;4.72;;;20.80;94.30;;;;;;9181926;19;20022;-72
2022/06/24 05:50:49;;;;;;;6.72;4.70;;;21.10;95.20;;;;;;9177331;19;20081;-72
2022/06/24 05:57:09;;;;;;;6.65;4.75;;;20.80;94.80;;;;;;9182862;19;20015;-73
2022/06/24 06:00:17;;;;;;;7.10;5.38;;;20.80;95.10;;;;;;9179421;19;20182;-72
2022/06/24 06:03:21;;;;;;;9.75;6.28;;;20.80;95.80;;;;;;9182410;19;20022;-72
2022/06/24 06:06:25;;;;;;;6.75;5.63;;;20.70;95.70;;;;;;9184678;19;20007;-75
2022/06/24 06:09:29;;;;;;;11.40;6.53;;;20.30;96.50;;;;;;9179317;19;20011;-76
2022/06/24 06:12:36;;;;;;;10.13;7.40;;;19.60;99.90;;;;;;9181056;19;20360;-74
2022/06/24 06:15:43;;;;;;;;;;;18.90;99.90;;;;;;9183153;19;20018;-75
2022/06/24 06:18:48;;;;;;;14.82;9.13;;;18.20;99.90;;;;;;9178089;19;19922;-73
2022/06/24 06:21:52;;;;;;;18.75;9.02;;;18.00;99.90;;;;;;9180853;19;20038;-73
2022/06/24 06:24:56;;;;;;;13.95;9.55;;;17.70;99.90;;;;;;9182999;19;20015;-74
2022/06/24 06:28:01;;;;;;;12.85;9.40;;;17.50;99.90;;;;;;9178933;19;20092;-74
2022/06/24 06:31:10;;;;;;;13.13;8.77;;;17.50;99.90;;;;;;9184323;19;20108;-75
2022/06/24 06:34:14;;;;;;;11.80;8.57;;;17.60;99.90;;;;;;9176860;19;20014;-75
2022/06/24 06:37:17;;;;;;;12.43;8.75;;;17.70;99.90;;;;;;9178394;19;20010;-74
2022/06/24 06:40:22;;;;;;;12.18;8.57;;;17.80;99.90;;;;;;9178361;19;20015;-74
2022/06/24 06:43:25;;;;;;;10.70;8.23;;;17.60;99.90;;;;;;9182021;19;20357;-75
2022/06/24 06:46:32;;;;;;;10.13;8.40;;;17.60;99.90;;;;;;9177816;19;20022;-76
2022/06/24 06:49:36;;;;;;;11.00;9.60;;;17.90;99.90;;;;;;9178357;19;20733;-73
2022/06/24 06:52:40;;;;;;;12.05;9.00;;;18.00;99.90;;;;;;9182556;19;20011;-78
2022/06/24 06:55:44;;;;;;;13.38;9.02;;;18.00;99.90;;;;;;9180761;19;20022;-77
2022/06/24 06:58:48;;;;;;;12.90;10.10;;;18.10;99.90;;;;;;9176982;19;20011;-77
2022/06/24 07:01:54;;;;;;;13.18;9.25;;;18.20;99.90;;;;;;9178152;19;20367;-77
2022/06/24 07:04:58;;;;;;;14.35;9.15;;;18.00;99.90;;;;;;9176700;19;20022;-77
2022/06/24 07:08:02;;;;;;;13.65;9.93;;;18.20;99.90;;;;;;9180644;19;20014;-77
2022/06/24 07:11:06;;;;;;;12.13;9.82;;;18.30;99.90;;;;;;9181303;19;20016;-77
2022/06/24 07:14:10;;;;;;;15.45;9.75;;;18.10;99.90;;;;;;9177425;19;20363;-77
2022/06/24 07:17:17;;;;;;;15.52;10.07;;;18.30;99.90;;;;;;9179659;19;20432;-78
2022/06/24 07:20:21;;;;;;;16.38;10.55;;;18.50;99.90;;;;;;9179641;19;20018;-75
2022/06/24 07:23:25;;;;;;;16.88;11.13;;;18.30;99.90;;;;;;9175902;19;20161;-76
2022/06/24 07:26:29;;;;;;;19.40;12.70;;;19.70;99.90;;;;;;9178836;19;20060;-75
2022/06/24 07:29:34;;;;;;;18.13;11.98;;;18.40;99.90;;;;;;9181514;19;20014;-75
2022/06/24 07:32:41;;;;;;;18.67;13.50;;;18.60;99.90;;;;;;9177350;19;20019;-74
2022/06/24 07:35:45;;;;;;;18.65;12.35;;;18.60;99.90;;;;;;9171130;19;20019;-76
2022/06/24 07:38:48;;;;;;;19.33;13.52;;;18.60;99.90;;;;;;9175721;19;20495;-75
2022/06/24 07:41:53;;;;;;;19.25;13.57;;;18.90;99.90;;;;;;9182389;19;20022;-76
2022/06/24 07:44:57;;;;;;;18.08;13.32;;;18.90;99.90;;;;;;9180458;19;20018;-75
2022/06/24 07:48:04;;;;;;;21.98;14.23;;;19.00;99.90;;;;;;9176223;19;20013;-75
2022/06/24 07:51:12;;;;;;;;;;;19.00;99.90;;;;;;9176253;19;20051;-76
2022/06/24 07:54:16;;;;;;;20.98;14.75;;;19.00;99.90;;;;;;9166905;19;19922;-75
2022/06/24 07:57:17;;;;;;;22.90;14.43;;;19.00;99.90;;;;;;9163139;19;20074;-75
2022/06/24 08:00:21;;;;;;;21.77;14.60;;;19.10;99.90;;;;;;9171558;19;20018;-76
2022/06/24 08:03:28;;;;;;;18.60;13.65;;;19.10;99.90;;;;;;9163743;19;20015;-75
2022/06/24 08:06:32;;;;;;;19.10;14.40;;;19.20;99.90;;;;;;9160827;19;20026;-74
2022/06/24 08:09:37;;;;;;;18.05;13.23;;;19.40;99.90;;;;;;9163618;19;20520;-74
2022/06/24 08:12:41;;;;;;;18.83;12.85;;;19.50;99.90;;;;;;9169287;19;20078;-73
2022/06/24 08:15:45;;;;;;;18.67;11.95;;;19.50;99.90;;;;;;9172089;19;20011;-77
2022/06/24 08:18:52;;;;;;;15.10;11.27;;;19.80;99.90;;;;;;9175420;19;20022;-77
2022/06/24 08:21:56;;;;;;;16.65;10.80;;;20.10;99.90;;;;;;9178512;19;20099;-77
2022/06/24 08:25:01;;;;;;;15.02;11.40;;;19.90;99.90;;;;;;9174383;19;20023;-77
2022/06/24 08:28:05;;;;;;;15.88;10.93;;;19.80;99.90;;;;;;9177761;19;20025;-78
2022/06/24 08:31:10;;;;;;;16.00;10.93;;;19.70;99.90;;;;;;9176099;19;20078;-74
2022/06/24 08:34:17;;;;;;;15.30;10.57;;;20.00;99.90;;;;;;9177145;19;20017;-75
2022/06/24 08:37:21;;;;;;;16.08;10.93;;;19.70;99.90;;;;;;9181417;19;20019;-73
2022/06/24 08:40:26;;;;;;;16.05;10.77;;;19.80;99.90;;;;;;9185625;19;20099;-74
2022/06/24 08:43:33;;;;;;;14.68;11.30;;;19.80;99.90;;;;;;9187747;19;20011;-74
2022/06/24 08:46:37;;;;;;;14.70;11.00;;;19.90;99.90;;;;;;9182464;19;20010;-74
2022/06/24 08:49:44;;;;;;;17.88;11.52;;;20.20;99.90;;;;;;9182796;19;20010;-74
2022/06/24 08:52:50;;;;;;;16.25;11.07;;;20.40;99.90;;;;;;9185202;19;20607;-74
2022/06/24 08:55:54;;;;;;;14.75;11.02;;;20.30;99.90;;;;;;9184717;19;20515;-74
2022/06/24 08:59:01;;;;;;;16.60;10.82;;;20.20;99.90;;;;;;9184272;19;20022;-74
2022/06/24 09:02:05;;;;;;;15.00;11.02;;;20.30;99.90;;;;;;9185136;19;20020;-74
2022/06/24 09:05:15;;;;;;;17.63;10.85;;;20.10;99.90;;;;;;9183125;19;20011;-74
2022/06/24 09:08:19;;;;;;;17.15;11.07;;;20.20;99.90;;;;;;9184592;19;20018;-74
2022/06/24 09:11:23;;;;;;;16.10;11.45;;;20.10;99.90;;;;;;9184345;19;20022;-74
2022/06/24 09:14:47;;;;;;;17.13;11.50;;;19.90;99.90;;;;;;9188322;19;20014;-73
2022/06/24 09:17:51;;;;;;;20.55;13.50;;;20.00;99.90;;;;;;9183894;19;20014;-73
2022/06/24 09:21:01;;;;;;;16.63;12.88;;;19.90;99.90;;;;;;9184433;19;20014;-73
2022/06/24 09:24:06;;;;;;;16.58;12.68;;;20.00;99.90;;;;;;9184063;19;20074;-73
2022/06/24 09:27:10;;;;;;;19.88;13.70;;;19.90;99.90;;;;;;9183580;19;20014;-74
2022/06/24 09:30:14;;;;;;;19.40;12.43;;;19.80;99.90;;;;;;9183898;19;20045;-73
2022/06/24 09:33:20;;;;;;;21.60;13.10;;;19.10;99.90;;;;;;9183477;19;20421;-74
2022/06/24 09:36:28;;;;;;;17.00;13.63;;;19.80;99.90;;;;;;9182766;19;20021;-74
2022/06/24 09:39:35;;;;;;;16.30;11.52;;;19.90;99.90;;;;;;9183086;19;20006;-74
2022/06/24 09:42:39;;;;;;;21.15;13.02;;;20.00;99.90;;;;;;9183460;19;20018;-75
2022/06/24 09:45:47;;;;;;;17.00;11.88;;;20.00;99.90;;;;;;9179474;19;20014;-74
2022/06/24 09:48:57;;;;;;;17.83;12.93;;;20.10;99.90;;;;;;9181247;19;20383;-74
2022/06/24 09:52:04;;;;;;;16.55;12.70;;;20.00;99.90;;;;;;9182941;19;20007;-74
2022/06/24 09:55:09;;;;;;;17.23;12.25;;;20.20;99.90;;;;;;9182555;19;20010;-74
2022/06/24 09:58:14;;;;;;;16.42;11.43;;;20.20;99.90;;;;;;9182129;19;20007;-74
2022/06/24 10:01:22;;;;;;;16.45;12.32;;;20.40;99.90;;;;;;9181830;19;20420;-74
2022/06/24 10:04:27;;;;;;;16.52;12.32;;;20.30;99.90;;;;;;9181859;19;20010;-74
2022/06/24 10:07:37;;;;;;;21.15;12.52;;;20.40;99.90;;;;;;9183716;19;20014;-74
2022/06/24 10:10:47;;;;;;;15.98;12.95;;;20.50;99.90;;;;;;9181696;19;20010;-74
2022/06/24 10:13:51;;;;;;;16.00;12.13;;;20.50;99.90;;;;;;9182128;19;20018;-74
2022/06/24 10:16:55;;;;;;;17.38;12.10;;;20.60;99.90;;;;;;9181104;19;20427;-74
2022/06/24 10:20:01;;;;;;;21.70;12.20;;;20.50;99.90;;;;;;9181290;19;20014;-74
2022/06/24 10:23:07;;;;;;;15.50;12.38;;;20.50;99.90;;;;;;9181104;19;20015;-74
2022/06/24 10:26:13;;;;;;;17.13;12.02;;;20.40;99.90;;;;;;9179153;19;20015;-74
2022/06/24 10:29:25;;;;;;;16.70;12.77;;;20.60;99.90;;;;;;9180973;19;20011;-72
2022/06/24 10:32:29;;;;;;;15.63;12.43;;;20.60;99.90;;;;;;9180939;19;20126;-74
2022/06/24 10:36:01;;;;;;;19.05;12.68;;;20.50;99.90;;;;;;9180712;19;20373;-74
2022/06/24 10:39:13;;;;;;;18.73;12.30;;;20.70;99.90;;;;;;9180627;19;20011;-73
2022/06/24 10:42:20;;;;;;;16.30;11.93;;;20.80;99.90;;;;;;9180388;19;20319;-73
2022/06/24 10:45:37;;;;;;;19.92;13.90;;;20.90;99.90;;;;;;9180095;19;20011;-73
2022/06/24 10:49:01;;;;;;;20.95;13.50;;;20.80;99.90;;;;;;9179155;19;20014;-74
2022/06/24 10:52:32;;;;;;;17.52;12.40;;;20.80;99.90;;;;;;9180590;19;20018;-73
2022/06/24 10:55:42;;;;;;;17.77;14.50;;;20.80;99.90;;;;;;9179992;19;20014;-73
2022/06/24 10:58:46;;;;;;;17.85;12.82;;;20.70;99.90;;;;;;9178930;19;20506;-73
2022/06/24 11:01:52;;;;;;;17.50;13.05;;;20.70;99.90;;;;;;9180049;19;20019;-73
2022/06/24 11:04:56;;;;;;;19.07;14.20;;;20.80;99.90;;;;;;9179382;19;20018;-73
2022/06/24 11:08:00;;;;;;;17.08;13.57;;;20.60;99.90;;;;;;9183146;19;20416;-73
2022/06/24 11:11:07;;;;;;;17.10;11.55;;;20.60;99.90;;;;;;9179473;19;20010;-73
2022/06/24 11:14:27;;;;;;;5.25;3.28;;;20.60;99.90;;;;;;9179426;19;20003;-73
2022/06/24 11:17:30;;;;;;;5.43;1.88;;;20.10;99.90;;;;;;9178781;19;20006;-74
2022/06/24 11:20:37;;;;;;;19.63;3.00;;;20.00;99.90;;;;;;9178038;19;20101;-78
2022/06/24 11:23:41;;;;;;;;;;;19.20;99.90;;;;;;9179498;19;20129;-78
2022/06/24 11:27:05;;;;;;;11.13;2.13;;;18.80;99.90;;;;;;9177240;19;19911;-77
2022/06/24 11:30:11;;;;;;;5.72;2.10;;;18.40;99.90;;;;;;9179901;19;20021;-76
2022/06/24 11:33:15;;;;;;;6.93;2.33;;;18.10;99.90;;;;;;9178827;19;20365;-76
2022/06/24 11:36:23;;;;;;;5.35;1.65;;;18.30;99.90;;;;;;9177955;19;20070;-76
2022/06/24 11:39:27;;;;;;;4.38;1.38;;;18.20;99.90;;;;;;9177833;19;20025;-75
2022/06/24 11:42:34;;;;;;;4.18;1.23;;;18.20;99.90;;;;;;9177969;19;20359;-75
2022/06/24 11:45:39;;;;;;;3.95;1.13;;;18.70;99.90;;;;;;9177953;19;20422;-75
2022/06/24 11:48:43;;;;;;;5.32;2.35;;;18.40;99.90;;;;;;9176762;19;20344;-74
2022/06/24 11:51:48;;;;;;;4.43;1.42;;;18.40;99.90;;;;;;9177796;19;20014;-74
2022/06/24 11:54:52;;;;;;;5.15;1.50;;;18.40;99.90;;;;;;9177977;19;20423;-74
2022/06/24 11:58:00;;;;;;;1.77;0.80;;;18.50;99.90;;;;;;9177830;19;20039;-74
2022/06/24 12:01:04;;;;;;;3.65;1.52;;;18.40;99.90;;;;;;9177378;19;20082;-74
2022/06/24 12:04:10;;;;;;;2.70;1.30;;;18.60;99.90;;;;;;9177561;19;20006;-74
2022/06/24 12:07:14;;;;;;;4.78;2.00;;;18.50;99.90;;;;;;9178161;19;20022;-73
2022/06/24 12:10:18;;;;;;;2.63;1.58;;;18.30;99.90;;;;;;9186783;19;20530;-74
2022/06/24 12:13:34;;;;;;;4.97;2.00;;;18.30;99.90;;;;;;9186701;19;20417;-74
2022/06/24 12:16:56;;;;;;;4.97;3.15;;;18.20;99.90;;;;;;9186734;19;20036;-74
2022/06/24 12:20:04;;;;;;;5.65;4.03;;;18.20;99.90;;;;;;9186176;19;20015;-74
2022/06/24 12:23:21;;;;;;;5.40;4.00;;;18.10;99.90;;;;;;9186646;19;20081;-74
2022/06/24 12:26:27;;;;;;;4.63;3.55;;;18.10;99.90;;;;;;9182579;19;20082;-74
2022/06/24 12:29:36;;;;;;;4.78;2.90;;;18.00;99.90;;;;;;9186483;19;20021;-74
2022/06/24 12:33:00;;;;;;;4.00;2.80;;;18.00;99.90;;;;;;9186060;19;20014;-74
2022/06/24 12:36:10;;;;;;;5.82;2.63;;;17.80;99.90;;;;;;9184879;19;20406;-74
2022/06/24 12:39:15;;;;;;;4.35;2.22;;;17.80;99.90;;;;;;9185567;19;20015;-74
2022/06/24 12:42:21;;;;;;;4.85;2.72;;;17.80;99.90;;;;;;9185622;19;20016;-74
2022/06/24 12:45:28;;;;;;;3.40;2.33;;;17.80;99.90;;;;;;9185378;19;20018;-73
2022/06/24 12:51:50;;;;;;;4.38;3.03;;;17.80;99.90;;;;;;9185074;19;20432;-74
2022/06/24 12:54:54;;;;;;;5.38;2.83;;;17.80;99.90;;;;;;9184984;19;20074;-74
2022/06/24 12:57:58;;;;;;;5.70;3.13;;;18.20;99.90;;;;;;9184925;19;20007;-73
2022/06/24 13:01:05;;;;;;;5.13;2.85;;;18.10;99.90;;;;;;9185461;19;20015;-74
2022/06/24 13:04:09;;;;;;;6.35;3.17;;;18.20;99.90;;;;;;9185069;19;20042;-73
2022/06/24 13:07:13;;;;;;;5.00;2.60;;;18.30;99.90;;;;;;9184188;19;20006;-74
2022/06/24 13:10:17;;;;;;;6.85;3.72;;;18.20;99.90;;;;;;9183890;19;20010;-73
2022/06/24 13:13:21;;;;;;;4.28;3.45;;;18.10;99.90;;;;;;9184616;19;20078;-74
2022/06/24 13:16:28;;;;;;;5.32;3.00;;;18.30;99.90;;;;;;9182836;19;20089;-73
2022/06/24 13:19:32;;;;;;;4.68;3.17;;;18.30;99.90;;;;;;9182313;19;20040;-74
2022/06/24 13:22:35;;;;;;;5.50;3.00;;;18.10;99.90;;;;;;9183682;19;20014;-74
2022/06/24 13:25:42;;;;;;;4.78;2.70;;;18.20;99.90;;;;;;9183253;19;20078;-73
2022/06/24 13:28:46;;;;;;;5.43;3.10;;;18.50;99.90;;;;;;9183295;19;20102;-73
2022/06/24 13:31:52;;;;;;;5.68;3.25;;;18.50;99.90;;;;;;9183797;19;20034;-73
2022/06/24 13:34:56;;;;;;;3.97;2.75;;;18.40;99.90;;;;;;9183454;19;20498;-74
2022/06/24 13:38:00;;;;;;;3.63;2.63;;;18.70;99.90;;;;;;9181681;19;20074;-73
2022/06/24 13:41:05;;;;;;;4.70;2.85;;;18.60;99.90;;;;;;9183303;19;20070;-73
2022/06/24 13:44:11;;;;;;;6.05;2.90;;;18.80;99.90;;;;;;9183710;19;20508;-74
2022/06/24 13:47:17;;;;;;;3.42;2.80;;;18.80;99.90;;;;;;9180869;19;20015;-76
2022/06/24 13:50:21;;;;;;;4.70;2.75;;;18.90;99.90;;;;;;9180285;19;20010;-74
2022/06/24 13:53:25;;;;;;;4.60;2.90;;;19.20;99.90;;;;;;9183690;19;20540;-74
2022/06/24 13:56:30;;;;;;;4.30;2.78;;;19.10;99.90;;;;;;9182812;19;20018;-74
2022/06/24 13:59:34;;;;;;;4.95;2.90;;;19.30;99.90;;;;;;9182636;19;20074;-74
2022/06/24 14:02:41;;;;;;;6.82;2.95;;;19.50;99.90;;;;;;9182258;19;20029;-73
2022/06/24 14:05:45;;;;;;;5.57;3.05;;;19.70;99.90;;;;;;9182599;19;20491;-74
2022/06/24 14:08:49;;;;;;;6.20;3.90;;;20.20;99.90;;;;;;9187313;19;20066;-73
2022/06/24 14:11:53;;;;;;;4.95;3.95;;;20.20;99.90;;;;;;9180922;19;20015;-73
2022/06/24 14:14:56;;;;;;;5.10;3.90;;;20.40;99.90;;;;;;9183237;19;20002;-73
2022/06/24 14:18:04;;;;;;;5.47;3.40;;;20.30;99.90;;;;;;9182118;19;20010;-73
2022/06/24 14:21:08;;;;;;;4.05;2.95;;;20.70;99.90;;;;;;9182463;19;20337;-72
2022/06/24 14:27:28;;;;;;;4.90;2.73;;;21.00;99.90;;;;;;9180077;19;20014;-72
2022/06/24 14:30:32;;;;;;;4.53;3.10;;;21.10;99.90;;;;;;9182096;19;20036;-74
2022/06/24 14:33:38;;;;;;;4.53;3.17;;;20.70;99.90;;;;;;9182711;19;20014;-73
2022/06/24 14:36:42;;;;;;;6.00;3.30;;;21.00;99.90;;;;;;9182619;19;20082;-73
2022/06/24 14:43:03;;;;;;;;;;;20.80;99.90;;;;;;9183503;19;20018;-73
2022/06/24 14:46:07;;;;;;;5.28;3.60;;;20.70;99.90;;;;;;9182375;19;19918;-73
2022/06/24 14:49:14;;;;;;;7.00;3.95;;;22.00;99.90;;;;;;9181978;19;20074;-73
2022/06/24 14:52:18;;;;;;;8.23;5.15;;;20.80;99.90;;;;;;9183105;19;20010;-73
2022/06/24 14:55:22;;;;;;;5.03;3.88;;;20.80;99.90;;;;;;9181994;19;20010;-73
2022/06/24 14:58:26;;;;;;;4.65;3.28;;;20.90;99.90;;;;;;9180452;19;20096;-73
2022/06/24 15:01:30;;;;;;;5.35;3.20;;;21.00;99.90;;;;;;9180140;19;20095;-73
2022/06/24 15:04:36;;;;;;;5.72;3.33;;;20.90;99.90;;;;;;9182088;19;20011;-73
2022/06/24 15:07:40;;;;;;;3.90;3.30;;;21.40;99.90;;;;;;9181515;19;20018;-73
2022/06/24 15:10:44;;;;;;;6.18;3.72;;;21.60;99.90;;;;;;9179479;19;20018;-74
2022/06/24 15:13:48;;;;;;;4.35;2.97;;;21.90;99.90;;;;;;9179666;19;20070;-73
2022/06/24 15:16:52;;;;;;;6.90;3.45;;;22.00;99.90;;;;;;9179195;19;20399;-73
2022/06/24 15:19:58;;;;;;;7.32;4.10;;;22.20;99.90;;;;;;9177959;19;20007;-73
2022/06/24 15:23:02;;;;;;;6.13;4.47;;;22.40;99.90;;;;;;9177402;19;20371;-73
2022/06/24 15:26:07;;;;;;;6.45;4.70;;;22.80;99.90;;;;;;9177381;19;20070;-73
2022/06/24 15:29:11;;;;;;;4.88;4.38;;;22.50;99.90;;;;;;9177419;19;20007;-73
2022/06/24 15:32:15;;;;;;;6.57;4.20;;;22.80;99.90;;;;;;9177246;19;20348;-72
2022/06/24 15:35:23;;;;;;;6.50;4.30;;;22.80;99.90;;;;;;9177001;19;20464;-73
2022/06/24 15:38:27;;;;;;;7.50;5.32;;;23.30;99.90;;;;;;9178076;19;20019;-73
2022/06/24 15:41:31;;;;;;;10.88;6.03;;;23.40;99.90;;;;;;9178287;19;20014;-72
2022/06/24 15:44:36;;;;;;;11.60;7.93;;;23.50;99.90;;;;;;9176176;19;20096;-73
2022/06/24 15:47:40;;;;;;;9.95;6.15;;;23.30;99.90;;;;;;9175920;19;20381;-73
2022/06/24 15:50:47;;;;;;;7.60;6.72;;;23.80;99.90;;;;;;9178693;19;20485;-73
2022/06/24 15:53:50;;;;;;;;;;;23.90;99.90;;;;;;9178333;19;20015;-73
2022/06/24 15:56:54;;;;;;;7.15;6.45;;;24.00;99.90;;;;;;9176110;19;20332;-73
2022/06/24 15:59:58;;;;;;;9.55;7.45;;;24.20;99.90;;;;;;9177391;19;20134;-73
2022/06/24 16:03:02;;;;;;;7.80;6.90;;;24.40;99.90;;;;;;9175530;19;20014;-73
2022/06/24 16:06:09;;;;;;;8.70;7.47;;;24.40;99.90;;;;;;9176797;19;20015;-73
2022/06/24 16:09:13;;;;;;;11.18;8.05;;;24.60;99.90;;;;;;9177038;19;20007;-73
2022/06/24 16:15:33;;;;;;;10.38;7.90;;;24.60;99.90;;;;;;9176998;19;20501;-73
2022/06/24 16:18:37;;;;;;;8.77;7.80;;;24.70;99.90;;;;;;9176155;19;20420;-73
2022/06/24 16:21:43;;;;;;;10.05;8.18;;;25.00;99.90;;;;;;9176445;19;20073;-73